createdAt,value
2023-01-18T00:01:05.861Z,22.60
2023-01-18T00:03:33.894Z,20.00
2023-01-18T00:06:02.244Z,19.20
2023-01-18T00:08:31.196Z,22.67
2023-01-18T00:11:15.577Z,23.20
2023-01-18T00:13:42.494Z,22.87
2023-01-18T00:16:13.143Z,21.80
2023-01-18T00:18:40.345Z,20.37
2023-01-18T00:21:09.283Z,24.43
2023-01-18T00:23:36.808Z,17.30
2023-01-18T00:26:09.494Z,24.23
2023-01-18T00:28:40.395Z,19.83
2023-01-18T00:31:18.654Z,25.13
2023-01-18T00:33:47.158Z,18.70
2023-01-18T00:36:14.626Z,19.50
2023-01-18T00:38:41.518Z,18.70
2023-01-18T00:41:10.382Z,22.60
2023-01-18T00:43:42.349Z,18.47
2023-01-18T00:46:14.627Z,20.97
2023-01-18T00:48:42.773Z,20.27
2023-01-18T00:51:12.061Z,22.37
2023-01-18T00:53:39.477Z,20.83
2023-01-18T00:56:10.775Z,20.53
2023-01-18T00:58:37.742Z,18.60
2023-01-18T01:01:06.304Z,22.07
2023-01-18T01:03:51.592Z,19.50
2023-01-18T01:06:48.398Z,18.87
2023-01-18T01:09:15.131Z,16.43
2023-01-18T01:12:02.149Z,22.47
2023-01-18T01:14:50.842Z,21.63
2023-01-18T01:17:36.530Z,28.37
2023-01-18T01:20:22.324Z,18.33
2023-01-18T01:23:07.335Z,20.50
2023-01-18T01:25:55.609Z,19.50
2023-01-18T01:28:25.579Z,16.50
2023-01-18T01:30:56.423Z,20.87
2023-01-18T01:33:23.265Z,23.03
2023-01-18T01:35:50.078Z,17.23
2023-01-18T01:38:16.739Z,19.90
2023-01-18T01:40:43.351Z,18.50
2023-01-18T01:43:13.456Z,17.43
2023-01-18T01:45:42.397Z,19.40
2023-01-18T01:48:10.934Z,21.17
2023-01-18T01:50:40.223Z,18.93
2023-01-18T01:53:08.587Z,21.47
2023-01-18T01:55:37.889Z,19.63
2023-01-18T01:58:18.675Z,17.27
2023-01-18T02:00:46.146Z,16.87
2023-01-18T02:03:18.562Z,18.20
2023-01-18T02:05:50.680Z,20.83
2023-01-18T02:08:22.767Z,17.10
2023-01-18T02:10:52.730Z,16.17
2023-01-18T02:13:23.693Z,21.00
2023-01-18T02:15:53.184Z,16.30
2023-01-18T02:18:26.903Z,18.57
2023-01-18T02:20:53.797Z,18.03
2023-01-18T02:23:29.522Z,13.77
2023-01-18T02:26:31.786Z,14.67
2023-01-18T02:29:15.145Z,16.83
2023-01-18T02:32:12.702Z,18.23
2023-01-18T02:34:51.859Z,15.63
2023-01-18T02:37:38.018Z,16.70
2023-01-18T02:40:34.430Z,21.87
2023-01-18T02:43:23.505Z,19.10
2023-01-18T02:46:09.179Z,15.87
2023-01-18T02:48:39.105Z,19.83
2023-01-18T02:51:06.581Z,18.50
2023-01-18T02:53:40.347Z,23.13
2023-01-18T02:56:13.669Z,15.20
2023-01-18T02:58:47.411Z,17.10
2023-01-18T03:01:28.734Z,18.53
2023-01-18T03:04:01.979Z,20.13
2023-01-18T03:06:30.033Z,22.77
2023-01-18T03:09:00.633Z,17.80
2023-01-18T03:11:33.338Z,16.93
2023-01-18T03:14:22.137Z,20.70
2023-01-18T03:17:07.400Z,17.87
2023-01-18T03:20:03.137Z,15.57
2023-01-18T03:22:55.510Z,18.87
2023-01-18T03:25:35.170Z,17.73
2023-01-18T03:28:32.648Z,20.47
2023-01-18T03:31:22.173Z,13.73
2023-01-18T03:34:05.816Z,16.97
2023-01-18T03:36:40.500Z,17.23
2023-01-18T03:39:19.109Z,17.90
2023-01-18T03:41:51.849Z,16.53
2023-01-18T03:44:41.297Z,16.13
2023-01-18T03:47:08.654Z,16.93
2023-01-18T03:49:35.928Z,14.70
2023-01-18T03:52:20.412Z,14.07
2023-01-18T03:54:51.640Z,18.67
2023-01-18T03:57:36.454Z,16.20
2023-01-18T04:00:06.100Z,19.93
2023-01-18T04:02:35.236Z,14.97
2023-01-18T04:05:04.381Z,14.70
2023-01-18T04:07:31.829Z,16.17
2023-01-18T04:09:59.824Z,13.03
2023-01-18T04:12:26.905Z,15.50
2023-01-18T04:14:56.209Z,17.97
2023-01-18T04:17:22.901Z,18.13
2023-01-18T04:19:49.505Z,15.47
2023-01-18T04:22:16.849Z,18.30
2023-01-18T04:24:43.502Z,15.10
2023-01-18T04:27:10.173Z,15.60
2023-01-18T04:29:36.837Z,20.77
2023-01-18T04:32:04.167Z,16.37
2023-01-18T04:34:30.750Z,16.07
2023-01-18T04:36:59.627Z,14.57
2023-01-18T04:39:26.440Z,13.97
2023-01-18T04:41:53.076Z,17.37
2023-01-18T04:44:22.245Z,15.07
2023-01-18T04:46:49.154Z,15.70
2023-01-18T04:49:17.486Z,13.07
2023-01-18T04:51:49.640Z,12.70
2023-01-18T04:54:18.336Z,18.87
2023-01-18T04:56:47.480Z,13.23
2023-01-18T04:59:17.799Z,17.77
2023-01-18T05:01:44.523Z,17.40
2023-01-18T05:04:11.257Z,15.97
2023-01-18T05:06:38.032Z,19.07
2023-01-18T05:09:04.868Z,16.43
2023-01-18T05:11:31.428Z,17.57
2023-01-18T05:14:00.336Z,15.00
2023-01-18T05:16:27.804Z,15.53
2023-01-18T05:18:54.667Z,13.97
2023-01-18T05:21:21.646Z,19.10
2023-01-18T05:23:50.810Z,15.50
2023-01-18T05:26:19.783Z,17.10
2023-01-18T05:28:47.557Z,16.57
2023-01-18T05:31:15.755Z,15.50
2023-01-18T05:33:42.798Z,15.23
2023-01-18T05:36:09.893Z,17.63
2023-01-18T05:38:36.573Z,15.40
2023-01-18T05:41:03.556Z,17.07
2023-01-18T05:43:30.353Z,21.37
2023-01-18T05:45:57.739Z,18.07
2023-01-18T05:48:24.825Z,17.13
2023-01-18T05:50:51.959Z,16.00
2023-01-18T05:53:20.908Z,18.10
2023-01-18T05:55:55.908Z,18.27
2023-01-18T05:58:22.668Z,15.37
2023-01-18T06:00:49.626Z,14.43
2023-01-18T06:03:16.446Z,18.00
2023-01-18T06:05:43.022Z,20.80
2023-01-18T06:08:09.683Z,23.40
2023-01-18T06:10:36.255Z,19.47
2023-01-18T06:13:05.372Z,16.30
2023-01-18T06:15:34.370Z,18.20
2023-01-18T06:18:01.134Z,18.87
2023-01-18T06:20:30.600Z,18.27
2023-01-18T06:22:58.564Z,18.23
2023-01-18T06:25:26.911Z,16.70
2023-01-18T06:27:53.492Z,16.13
2023-01-18T06:30:26.178Z,18.37
2023-01-18T06:32:55.327Z,20.60
2023-01-18T06:35:22.166Z,19.97
2023-01-18T06:37:48.862Z,20.37
2023-01-18T06:40:15.846Z,18.63
2023-01-18T06:42:42.811Z,19.03
2023-01-18T06:45:09.853Z,18.83
2023-01-18T06:47:36.423Z,20.37
2023-01-18T06:50:05.508Z,18.17
2023-01-18T06:52:32.190Z,20.33
2023-01-18T06:54:59.078Z,20.37
2023-01-18T06:57:25.742Z,16.77
2023-01-18T06:59:55.032Z,21.87
2023-01-18T07:02:21.978Z,21.00
2023-01-18T07:04:48.860Z,20.67
2023-01-18T07:07:15.647Z,19.13
2023-01-18T07:09:44.752Z,20.30
2023-01-18T07:12:13.719Z,20.50
2023-01-18T07:14:40.810Z,16.50
2023-01-18T07:17:08.881Z,22.63
2023-01-18T07:19:38.772Z,20.60
2023-01-18T07:22:07.826Z,21.20
2023-01-18T07:24:34.508Z,27.23
2023-01-18T07:27:01.180Z,22.60
2023-01-18T07:29:31.018Z,25.17
2023-01-18T07:31:57.952Z,22.30
2023-01-18T07:34:27.141Z,23.30
2023-01-18T07:36:54.401Z,27.03
2023-01-18T07:39:21.049Z,21.00
2023-01-18T07:41:47.754Z,20.50
2023-01-18T07:44:14.308Z,22.80
2023-01-18T07:46:43.192Z,23.47
2023-01-18T07:49:10.059Z,24.47
2023-01-18T07:51:36.915Z,25.77
2023-01-18T07:54:03.949Z,21.97
2023-01-18T07:56:30.845Z,28.00
2023-01-18T07:58:57.579Z,24.10
2023-01-18T08:01:25.105Z,24.63
2023-01-18T08:03:53.786Z,27.27
2023-01-18T08:06:25.577Z,26.97
2023-01-18T08:08:57.070Z,24.37
2023-01-18T08:11:26.397Z,24.27
2023-01-18T08:13:53.098Z,25.93
2023-01-18T08:16:20.107Z,27.73
2023-01-18T08:18:50.120Z,25.17
2023-01-18T08:21:19.236Z,27.67
2023-01-18T08:23:45.972Z,21.33
2023-01-18T08:26:15.415Z,28.07
2023-01-18T08:28:42.027Z,24.60
2023-01-18T08:31:17.868Z,20.37
2023-01-18T08:33:47.669Z,26.73
2023-01-18T08:36:25.550Z,22.43
2023-01-18T08:38:57.454Z,23.67
2023-01-18T08:41:28.515Z,21.87
2023-01-18T08:43:56.196Z,27.90
2023-01-18T08:46:23.432Z,20.57
2023-01-18T08:48:57.866Z,22.43
2023-01-18T08:51:26.447Z,20.57
2023-01-18T08:53:57.110Z,21.90
2023-01-18T08:56:23.866Z,21.43
2023-01-18T08:58:52.247Z,22.93
2023-01-18T09:01:19.159Z,28.20
2023-01-18T09:03:48.021Z,19.87
2023-01-18T09:06:16.848Z,23.27
2023-01-18T09:08:43.664Z,23.00
2023-01-18T09:11:10.792Z,26.53
2023-01-18T09:13:58.475Z,23.23
2023-01-18T09:16:26.361Z,20.13
2023-01-18T09:18:55.304Z,25.57
2023-01-18T09:21:21.956Z,22.73
2023-01-18T09:23:49.294Z,25.03
2023-01-18T09:26:17.608Z,24.40
2023-01-18T09:28:44.918Z,21.17
2023-01-18T09:31:12.483Z,27.20
2023-01-18T09:33:40.303Z,22.17
2023-01-18T09:36:10.087Z,21.73
2023-01-18T09:38:38.405Z,21.87
2023-01-18T09:41:24.840Z,20.83
2023-01-18T09:43:55.264Z,21.60
2023-01-18T09:46:23.846Z,20.17
2023-01-18T09:48:59.885Z,23.03
2023-01-18T09:51:42.132Z,20.13
2023-01-18T09:54:08.758Z,21.93
2023-01-18T09:56:46.675Z,18.80
2023-01-18T09:59:27.401Z,19.23
2023-01-18T10:01:56.089Z,23.93
2023-01-18T10:04:38.454Z,21.67
2023-01-18T10:07:17.047Z,19.07
2023-01-18T10:09:54.015Z,17.53
2023-01-18T10:12:41.070Z,17.53
2023-01-18T10:15:34.502Z,17.13
2023-01-18T10:18:01.355Z,17.30
2023-01-18T10:20:31.317Z,18.23
2023-01-18T10:23:04.026Z,17.27
2023-01-18T10:25:52.557Z,15.53
2023-01-18T10:28:41.275Z,14.33
2023-01-18T10:31:22.837Z,14.90
2023-01-18T10:33:54.735Z,19.47
2023-01-18T10:36:26.530Z,14.40
2023-01-18T10:38:55.565Z,21.90
2023-01-18T10:41:29.636Z,17.77
2023-01-18T10:43:56.790Z,16.40
2023-01-18T10:46:23.680Z,20.10
2023-01-18T10:48:52.752Z,15.50
2023-01-18T10:51:36.873Z,18.03
2023-01-18T10:54:19.079Z,16.73
2023-01-18T10:56:45.733Z,13.97
2023-01-18T10:59:25.405Z,17.53
2023-01-18T11:01:57.254Z,12.53
2023-01-18T11:04:30.062Z,17.20
2023-01-18T11:07:00.659Z,15.27
2023-01-18T11:09:39.691Z,16.00
2023-01-18T11:12:42.563Z,16.87
2023-01-18T11:15:15.653Z,12.70
2023-01-18T11:17:55.997Z,14.23
2023-01-18T11:20:30.259Z,13.87
2023-01-18T11:23:03.504Z,14.50
2023-01-18T11:25:42.758Z,14.43
2023-01-18T11:28:24.097Z,15.77
2023-01-18T11:31:05.738Z,15.40
2023-01-18T11:33:33.427Z,15.07
2023-01-18T11:36:05.155Z,18.57
2023-01-18T11:38:33.982Z,14.73
2023-01-18T11:41:06.856Z,16.77
2023-01-18T11:43:39.483Z,15.17
2023-01-18T11:46:36.953Z,16.30
2023-01-18T11:49:22.485Z,12.93
2023-01-18T11:51:57.233Z,11.33
2023-01-18T11:54:33.357Z,11.20
2023-01-18T11:57:02.978Z,12.30
2023-01-18T11:59:41.867Z,11.47
2023-01-18T12:02:14.499Z,12.03
2023-01-18T12:04:41.192Z,10.77
2023-01-18T12:07:10.887Z,15.13
2023-01-18T12:09:48.903Z,11.27
2023-01-18T12:12:38.467Z,11.07
2023-01-18T12:15:29.427Z,9.80
2023-01-18T12:18:26.903Z,9.83
2023-01-18T12:21:02.464Z,10.37
2023-01-18T12:24:06.734Z,9.77
2023-01-18T12:26:58.289Z,10.40
2023-01-18T12:29:52.729Z,8.27
2023-01-18T12:32:30.796Z,7.77
2023-01-18T12:35:25.208Z,11.13
2023-01-18T12:38:07.343Z,8.30
2023-01-18T12:40:44.803Z,10.73
2023-01-18T12:43:19.518Z,10.57
2023-01-18T12:46:09.345Z,8.77
2023-01-18T12:49:21.516Z,8.48
2023-01-18T12:51:53.074Z,7.97
2023-01-18T12:54:39.890Z,9.07
2023-01-18T12:57:07.852Z,6.68
2023-01-18T12:59:42.449Z,6.45
2023-01-18T13:02:29.813Z,11.57
2023-01-18T13:05:18.123Z,8.82
2023-01-18T13:08:06.420Z,7.38
2023-01-18T13:10:35.184Z,8.38
2023-01-18T13:13:04.168Z,4.53
2023-01-18T13:15:48.613Z,5.10
2023-01-18T13:18:27.110Z,10.55
2023-01-18T13:21:11.916Z,5.72
2023-01-18T13:23:57.227Z,10.68
2023-01-18T13:26:29.570Z,10.70
2023-01-18T13:29:29.876Z,6.18
2023-01-18T13:31:57.652Z,7.30
2023-01-18T13:34:31.431Z,6.38
2023-01-18T13:37:13.340Z,6.75
2023-01-18T13:39:47.589Z,8.98
2023-01-18T13:42:14.386Z,5.63
2023-01-18T13:44:48.230Z,7.65
2023-01-18T13:47:39.630Z,6.63
2023-01-18T13:50:28.256Z,6.35
2023-01-18T13:53:13.329Z,9.52
2023-01-18T13:56:00.220Z,5.97
2023-01-18T13:58:30.811Z,6.18
2023-01-18T14:01:03.586Z,6.93
2023-01-18T14:03:47.004Z,9.43
2023-01-18T14:06:24.965Z,8.80
2023-01-18T14:09:05.373Z,6.35
2023-01-18T14:11:37.781Z,10.83
2023-01-18T14:14:29.541Z,6.07
2023-01-18T14:17:08.854Z,9.27
2023-01-18T14:20:00.385Z,8.33
2023-01-18T14:22:37.630Z,6.65
2023-01-18T14:25:33.563Z,6.83
2023-01-18T14:28:14.628Z,8.50
2023-01-18T14:30:43.991Z,10.43
2023-01-18T14:33:16.526Z,8.23
2023-01-18T14:35:55.275Z,10.60
2023-01-18T14:38:22.019Z,9.73
2023-01-18T14:40:52.657Z,5.97
2023-01-18T14:43:45.625Z,10.80
2023-01-18T14:46:17.363Z,6.93
2023-01-18T14:48:56.291Z,7.63
2023-01-18T14:51:28.320Z,9.17
2023-01-18T14:54:00.763Z,7.73
2023-01-18T14:56:30.420Z,8.27
2023-01-18T14:58:59.775Z,12.20
2023-01-18T15:01:40.428Z,6.77
2023-01-18T15:04:20.219Z,7.57
2023-01-18T15:06:54.220Z,6.57
2023-01-18T15:09:22.547Z,7.53
2023-01-18T15:11:52.492Z,14.57
2023-01-18T15:14:29.317Z,8.10
2023-01-18T15:16:58.921Z,10.73
2023-01-18T15:19:40.530Z,7.73
2023-01-18T15:22:12.836Z,10.47
2023-01-18T15:24:41.991Z,9.73
2023-01-18T15:27:14.122Z,7.07
2023-01-18T15:29:45.915Z,11.47
2023-01-18T15:32:20.456Z,9.77
2023-01-18T15:34:49.763Z,6.60
2023-01-18T15:37:23.430Z,8.03
2023-01-18T15:40:04.058Z,6.50
2023-01-18T15:42:40.803Z,9.30
2023-01-18T15:45:18.588Z,9.80
2023-01-18T15:48:00.966Z,8.03
2023-01-18T15:50:44.408Z,8.67
2023-01-18T15:53:33.438Z,9.83
2023-01-18T15:56:07.519Z,9.63
2023-01-18T15:58:40.514Z,5.60
2023-01-18T16:01:17.070Z,8.57
2023-01-18T16:03:49.933Z,6.70
2023-01-18T16:06:22.951Z,6.40
2023-01-18T16:08:56.886Z,12.03
2023-01-18T16:11:53.328Z,10.00
2023-01-18T16:14:29.055Z,9.10
2023-01-18T16:17:07.976Z,9.30
2023-01-18T16:19:43.130Z,7.10
2023-01-18T16:22:18.848Z,9.40
2023-01-18T16:24:47.332Z,9.73
2023-01-18T16:27:20.242Z,8.33
2023-01-18T16:29:55.164Z,8.80
2023-01-18T16:32:21.803Z,9.80
2023-01-18T16:34:48.749Z,10.80
2023-01-18T16:37:17.222Z,10.73
2023-01-18T16:39:44.192Z,11.40
2023-01-18T16:42:12.266Z,9.67
2023-01-18T16:44:44.358Z,8.33
2023-01-18T16:47:12.302Z,10.37
2023-01-18T16:49:41.719Z,12.83
2023-01-18T16:52:12.756Z,10.57
2023-01-18T16:54:46.112Z,10.13
2023-01-18T16:57:21.044Z,16.63
2023-01-18T16:59:47.987Z,11.23
2023-01-18T17:02:15.102Z,14.23
2023-01-18T17:04:42.352Z,12.03
2023-01-18T17:07:09.901Z,11.57
2023-01-18T17:09:47.934Z,14.77
2023-01-18T17:12:17.875Z,13.53
2023-01-18T17:14:44.472Z,15.07
2023-01-18T17:17:11.277Z,10.00
2023-01-18T17:19:38.086Z,10.30
2023-01-18T17:22:05.018Z,8.07
2023-01-18T17:24:32.037Z,10.17
2023-01-18T17:26:58.677Z,16.00
2023-01-18T17:29:25.377Z,11.43
2023-01-18T17:31:53.053Z,12.67
2023-01-18T17:34:30.052Z,13.17
2023-01-18T17:36:58.782Z,11.33
2023-01-18T17:39:44.275Z,11.53
2023-01-18T17:42:29.847Z,13.30
2023-01-18T17:45:03.121Z,10.77
2023-01-18T17:47:34.918Z,9.97
2023-01-18T17:50:09.222Z,15.13
2023-01-18T17:52:37.260Z,9.23
2023-01-18T17:55:04.387Z,9.87
2023-01-18T17:57:31.136Z,11.63
2023-01-18T17:59:57.961Z,12.00
2023-01-18T18:02:25.554Z,14.60
2023-01-18T18:04:52.480Z,11.90
2023-01-18T18:07:19.219Z,11.17
2023-01-18T18:09:46.001Z,14.50
2023-01-18T18:12:12.741Z,12.80
2023-01-18T18:14:40.665Z,12.17
2023-01-18T18:17:07.987Z,14.83
2023-01-18T18:19:34.636Z,15.40
2023-01-18T18:22:01.890Z,13.03
2023-01-18T18:24:30.664Z,12.73
2023-01-18T18:27:03.027Z,13.77
2023-01-18T18:29:29.864Z,10.53
2023-01-18T18:31:56.764Z,12.27
2023-01-18T18:34:25.978Z,15.13
2023-01-18T18:36:52.673Z,15.60
2023-01-18T18:39:19.520Z,11.93
2023-01-18T18:41:48.698Z,12.73
2023-01-18T18:44:17.435Z,11.20
2023-01-18T18:46:44.010Z,17.33
2023-01-18T18:49:11.279Z,11.07
2023-01-18T18:51:37.897Z,13.00
2023-01-18T18:54:07.702Z,11.43
2023-01-18T18:56:34.442Z,12.80
2023-01-18T18:59:01.699Z,13.73
2023-01-18T19:01:30.174Z,9.77
2023-01-18T19:03:58.873Z,11.17
2023-01-18T19:06:26.438Z,8.33
2023-01-18T19:08:53.469Z,10.73
2023-01-18T19:11:21.034Z,13.97
2023-01-18T19:13:49.491Z,13.90
2023-01-18T19:16:17.086Z,12.33
2023-01-18T19:18:46.265Z,12.83
2023-01-18T19:21:12.980Z,15.93
2023-01-18T19:23:39.784Z,11.73
2023-01-18T19:26:06.573Z,13.00
2023-01-18T19:28:33.154Z,16.03
2023-01-18T19:31:05.611Z,11.23
2023-01-18T19:33:34.985Z,10.13
2023-01-18T19:36:16.706Z,14.77
2023-01-18T19:38:49.254Z,12.23
2023-01-18T19:41:19.237Z,11.63
2023-01-18T19:43:49.194Z,10.67
2023-01-18T19:46:16.497Z,13.37
2023-01-18T19:48:43.896Z,11.70
2023-01-18T19:51:21.627Z,12.63
2023-01-18T19:53:48.791Z,12.97
2023-01-18T19:56:15.439Z,11.40
2023-01-18T19:58:42.232Z,15.60
2023-01-18T20:01:20.445Z,15.57
2023-01-18T20:03:57.216Z,11.80
2023-01-18T20:06:24.030Z,13.73
2023-01-18T20:08:51.587Z,10.50
2023-01-18T20:11:18.587Z,14.07
2023-01-18T20:13:49.085Z,12.37
2023-01-18T20:16:21.971Z,10.00
2023-01-18T20:18:48.922Z,12.93
2023-01-18T20:21:18.484Z,15.73
2023-01-18T20:23:45.994Z,11.83
2023-01-18T20:26:17.939Z,13.07
2023-01-18T20:28:48.985Z,14.37
2023-01-18T20:31:15.577Z,10.57
2023-01-18T20:33:42.839Z,14.37
2023-01-18T20:36:11.830Z,16.00
2023-01-18T20:38:38.454Z,10.97
2023-01-18T20:41:07.241Z,17.37
2023-01-18T20:43:37.291Z,13.63
2023-01-18T20:46:06.511Z,12.10
2023-01-18T20:48:34.634Z,11.53
2023-01-18T20:51:02.614Z,12.80
2023-01-18T20:53:31.588Z,13.53
2023-01-18T20:56:17.035Z,16.23
2023-01-18T20:58:54.574Z,13.67
2023-01-18T21:01:21.517Z,11.07
2023-01-18T21:03:56.194Z,12.63
2023-01-18T21:06:23.247Z,11.47
2023-01-18T21:08:57.735Z,12.67
2023-01-18T21:11:26.797Z,10.43
2023-01-18T21:13:59.217Z,16.67
2023-01-18T21:16:27.846Z,12.97
2023-01-18T21:18:56.272Z,14.83
2023-01-18T21:21:23.914Z,16.93
2023-01-18T21:23:50.714Z,14.43
2023-01-18T21:26:19.774Z,16.43
2023-01-18T21:28:46.355Z,11.90
2023-01-18T21:31:13.032Z,14.17
2023-01-18T21:33:40.010Z,16.43
2023-01-18T21:36:11.424Z,11.90
2023-01-18T21:38:39.627Z,14.43
2023-01-18T21:41:38.497Z,15.03
2023-01-18T21:44:23.657Z,14.10
2023-01-18T21:46:51.916Z,16.97
2023-01-18T21:52:43.794Z,14.87
2023-01-18T21:55:10.466Z,14.60
2023-01-18T21:57:39.263Z,18.00
2023-01-18T22:00:07.059Z,15.43
2023-01-18T22:02:34.991Z,18.07
2023-01-18T22:05:03.589Z,14.33
2023-01-18T22:07:35.361Z,15.67
2023-01-18T22:10:16.081Z,19.13
2023-01-18T22:12:45.087Z,16.00
2023-01-18T22:15:11.915Z,15.97
2023-01-18T22:17:38.479Z,14.20
2023-01-18T22:20:05.482Z,18.83
2023-01-18T22:22:33.897Z,15.80
2023-01-18T22:25:02.279Z,15.50
2023-01-18T22:27:29.222Z,19.23
2023-01-18T22:29:55.924Z,15.33
2023-01-18T22:32:22.718Z,20.90
2023-01-18T22:34:49.311Z,14.10
2023-01-18T22:37:15.910Z,16.57
2023-01-18T22:39:42.671Z,14.47
2023-01-18T22:42:09.258Z,21.93
2023-01-18T22:44:37.085Z,21.10
2023-01-18T22:47:06.347Z,17.37
2023-01-18T22:49:33.220Z,23.77
2023-01-18T22:51:59.923Z,20.10
2023-01-18T22:54:31.523Z,19.10
2023-01-18T22:57:00.667Z,17.90
2023-01-18T22:59:27.316Z,17.53
2023-01-18T23:01:53.962Z,19.87
2023-01-18T23:04:20.747Z,15.93
2023-01-18T23:06:48.983Z,19.83
2023-01-18T23:09:17.699Z,14.20
2023-01-18T23:11:46.228Z,18.50
2023-01-18T23:14:31.852Z,14.90
2023-01-18T23:17:16.827Z,17.17
2023-01-18T23:19:44.154Z,14.83
2023-01-18T23:22:15.094Z,21.13
2023-01-18T23:24:44.224Z,18.47
2023-01-18T23:27:13.474Z,24.60
2023-01-18T23:29:40.375Z,16.03
2023-01-18T23:32:07.400Z,20.97
2023-01-18T23:34:34.281Z,17.00
2023-01-18T23:37:01.092Z,17.17
2023-01-18T23:39:46.711Z,16.73
2023-01-18T23:42:32.098Z,17.83
2023-01-18T23:45:17.329Z,21.80
2023-01-18T23:48:02.907Z,20.77
2023-01-18T23:50:48.350Z,21.40
2023-01-18T23:53:36.240Z,21.97
2023-01-18T23:56:02.929Z,21.43
2023-01-18T23:58:32.561Z,19.90
